Time;durP1;ratioP1;P1;durP2;ratioP2;P2;SDS_P1;SDS_P2;PMS_P1;PMS_P2;Temp;Humidity;BMP_temperature;BMP_pressure;BME280_temperature;BME280_humidity;BME280_pressure;Samples;Min_cycle;Max_cycle;Signal;HPM_P1;HPM_P2
2022/01/31 00:01:25;;;;;;;3.60;1.70;;;;;;;20.66;30.05;100205.45;102733;1316;74607;-78
2022/01/31 00:04:25;;;;;;;;;;;;;;;;;;;;;
2022/01/31 00:07:05;;;;;;;4.30;1.90;;;;;;;20.66;30.07;100203.50;103084;1322;60624;-84
2022/01/31 00:10:26;;;;;;;4.10;1.60;;;;;;;20.66;30.00;100200.82;103054;1321;72797;-82
2022/01/31 00:13:18;;;;;;;4.00;1.70;;;;;;;20.66;29.99;100202.96;103222;1322;73933;-81
2022/01/31 00:16:20;;;;;;;;;;;;;;;;;;;;;
2022/01/31 00:19:07;;;;;;;3.80;1.70;;;;;;;20.66;30.01;100205.29;103478;1319;61154;-86
2022/01/31 00:22:52;;;;;;;4.30;1.80;;;;;;;20.65;29.99;100204.96;103459;1319;71574;-85
2022/01/31 00:25:31;;;;;;;4.50;1.60;;;;;;;20.65;30.04;100203.20;102962;1324;75169;-82
2022/01/31 00:28:42;;;;;;;3.60;1.80;;;;;;;20.66;30.02;100202.59;102979;1326;61176;-81
2022/01/31 00:32:06;;;;;;;5.80;2.00;;;;;;;20.66;29.92;100201.36;102817;1325;61604;-83
2022/01/31 00:35:12;;;;;;;2.90;1.50;;;;;;;20.65;30.00;100206.20;102951;1324;71910;-84
2022/01/31 00:38:14;;;;;;;3.80;2.00;;;;;;;20.66;30.01;100205.05;102781;1326;75826;-82
2022/01/31 00:41:19;;;;;;;3.80;1.70;;;;;;;20.66;29.94;100201.48;102830;1318;61346;-87
2022/01/31 00:47:32;;;;;;;3.70;1.80;;;;;;;20.66;29.98;100205.06;102733;1328;73987;-86
2022/01/31 00:50:19;;;;;;;3.80;2.00;;;;;;;20.66;29.93;100203.29;102396;1331;74747;-82
2022/01/31 00:53:07;;;;;;;4.40;1.80;;;;;;;20.67;29.91;100203.58;102198;1334;61465;-86
2022/01/31 00:56:16;;;;;;;;;;;;;;;;;;;;;
2022/01/31 00:59:38;;;;;;;4.80;2.00;;;;;;;20.67;29.98;100210.38;102738;1328;72673;-83
2022/01/31 01:01:50;;;;;;;;;;;;;;;20.67;29.86;100207.71;102797;1321;74746;-88
2022/01/31 01:04:36;;;;;;;3.60;1.70;;;;;;;20.65;29.94;100211.42;103181;1322;61332;-85
2022/01/31 01:07:32;;;;;;;;;;;;;;;;;;;;;
2022/01/31 01:10:39;;;;;;;3.90;1.80;;;;;;;20.66;29.79;100212.08;103042;1322;73688;-85
2022/01/31 01:14:07;;;;;;;3.60;1.70;;;;;;;20.65;29.90;100209.08;103259;1321;73658;-82
2022/01/31 01:16:52;;;;;;;4.00;1.70;;;;;;;20.66;29.88;100212.08;102537;1331;61326;-86
2022/01/31 01:19:43;;;;;;;5.70;1.70;;;;;;;20.65;29.88;100214.95;102493;1328;61577;-87
2022/01/31 01:22:42;;;;;;;;;;;;;;;;;;;;;
2022/01/31 01:26:18;;;;;;;;;;;;;;;;;;;;;
2022/01/31 01:29:47;;;;;;;4.00;1.80;;;;;;;20.65;29.88;100215.17;104134;1316;61358;-82
2022/01/31 01:32:17;;;;;;;4.30;1.80;;;;;;;20.65;29.94;100218.89;103923;1315;61309;-86
2022/01/31 01:35:25;;;;;;;5.00;2.20;;;;;;;20.66;29.92;100217.10;103937;1316;73777;-85
2022/01/31 01:38:15;;;;;;;3.20;1.70;;;;;;;20.66;29.85;100215.85;104050;1316;76198;-82
2022/01/31 01:41:26;;;;;;;4.80;1.90;;;;;;;20.66;29.86;100218.15;103943;1316;61175;-82
2022/01/31 01:44:15;;;;;;;;;;;;;;;;;;;;;
2022/01/31 01:47:11;;;;;;;;;;;;;;;;;;;;;
2022/01/31 01:50:18;;;;;;;4.10;1.90;;;;;;;20.66;29.80;100219.23;104159;1316;73575;-82
2022/01/31 01:53:07;;;;;;;4.90;1.90;;;;;;;20.66;29.84;100217.23;103842;1308;61222;-81
2022/01/31 01:56:14;;;;;;;4.50;1.80;;;;;;;20.66;29.66;100213.45;104645;1307;61310;-81
2022/01/31 01:59:03;;;;;;;;;;;;;;;;;;;;;
2022/01/31 02:02:07;;;;;;;7.40;1.90;;;;;;;20.66;29.69;100218.15;104269;1313;75943;-87
2022/01/31 02:05:00;;;;;;;3.60;1.70;;;;;;;20.67;29.71;100220.59;103474;1319;61317;-82
2022/01/31 02:07:49;;;;;;;3.90;1.50;;;;;;;20.67;29.71;100226.85;103664;1319;61314;-81
2022/01/31 02:10:56;;;;;;;;;;;;;;;;;;;;;
2022/01/31 02:14:02;;;;;;;4.20;1.70;;;;;;;20.66;29.69;100221.86;103634;1319;75873;-83
2022/01/31 02:17:09;;;;;;;4.00;1.60;;;;;;;20.66;29.69;100220.67;102963;1325;61195;-85
2022/01/31 02:20:15;;;;;;;4.00;1.80;;;;;;;20.66;29.69;100224.76;102765;1326;61358;-82
2022/01/31 02:23:17;;;;;;;3.50;1.50;;;;;;;20.66;29.71;100222.77;102416;1331;73857;-85
2022/01/31 02:26:26;;;;;;;;;;;;;;;;;;;;;
2022/01/31 02:29:13;;;;;;;3.60;1.60;;;;;;;20.66;29.75;100227.44;101912;1339;61235;-79
2022/01/31 02:32:25;;;;;;;3.00;1.60;;;;;;;20.67;29.63;100221.66;101895;1339;61674;-86
2022/01/31 02:35:11;;;;;;;7.10;1.70;;;;;;;20.66;29.78;100217.94;101930;1334;72851;-83
2022/01/31 02:38:05;;;;;;;3.90;1.70;;;;;;;20.66;29.66;100220.30;102164;1334;76045;-82
2022/01/31 02:41:10;;;;;;;3.70;1.70;;;;;;;20.66;29.60;100219.58;102047;1337;61369;-81
2022/01/31 02:44:13;;;;;;;;;;;;;;;;;;;;;
2022/01/31 02:47:19;;;;;;;3.50;1.50;;;;;;;20.66;29.70;100222.08;102316;1334;74033;-85
2022/01/31 02:50:22;;;;;;;;;;;;;;;;;;;;;
2022/01/31 02:53:41;;;;;;;;;;;;;;;;;;;;;
2022/01/31 02:56:46;;;;;;;;;;;;;;;;;;;;;
2022/01/31 02:59:37;;;;;;;3.70;1.70;;;;;;;20.65;29.63;100226.05;101716;1338;73096;-85
2022/01/31 03:02:45;;;;;;;3.10;1.60;;;;;;;20.66;29.62;100231.54;101888;1335;75642;-87
2022/01/31 03:05:32;;;;;;;3.00;1.60;;;;;;;20.66;29.60;100230.48;101865;1342;61346;-88
2022/01/31 03:08:38;;;;;;;3.20;1.40;;;;;;;20.66;29.65;100230.48;101753;1344;61426;-82
2022/01/31 03:11:29;;;;;;;3.50;1.30;;;;;;;20.66;29.65;100232.98;101589;1348;72529;-82
2022/01/31 03:14:23;;;;;;;3.50;1.60;;;;;;;20.66;29.60;100232.60;101565;1347;75047;-84
2022/01/31 03:17:40;;;;;;;;;;;;;;;;;;;;;
2022/01/31 03:20:18;;;;;;;3.40;1.50;;;;;;;20.66;29.66;100237.08;101611;1348;61532;-81
2022/01/31 03:23:11;;;;;;;5.10;2.10;;;;;;;20.66;29.62;100236.90;101496;1348;73984;-82
2022/01/31 03:25:37;;;;;;;4.40;1.80;;;;;;;20.66;29.62;100235.31;101516;1350;73826;-83
2022/01/31 03:28:45;;;;;;;5.00;1.80;;;;;;;20.66;29.66;100237.07;101607;1346;61521;-83
2022/01/31 03:34:51;;;;;;;;;;;;;;;;;;;;;
2022/01/31 03:37:37;;;;;;;3.70;1.80;;;;;;;20.65;29.64;100235.23;101897;1337;75645;-86
2022/01/31 03:40:51;;;;;;;3.60;1.60;;;;;;;20.65;29.54;100238.63;101732;1343;61371;-83
2022/01/31 03:43:30;;;;;;;2.40;1.40;;;;;;;20.64;29.56;100242.92;101871;1338;61366;-83
2022/01/31 03:47:04;;;;;;;2.20;1.30;;;;;;;20.65;29.57;100245.42;101884;1340;71608;-86
2022/01/31 03:50:05;;;;;;;;;;;;;;;;;;;;;
2022/01/31 03:53:12;;;;;;;2.80;1.50;;;;;;;20.64;29.50;100239.39;101471;1349;62132;-82
2022/01/31 03:56:08;;;;;;;3.90;1.70;;;;;;;20.64;29.63;100234.36;101174;1355;61568;-83
2022/01/31 03:59:04;;;;;;;;;;;;;;;;;;;;;
2022/01/31 04:02:28;;;;;;;3.30;1.50;;;;;;;20.65;29.71;100246.84;100478;1357;76454;-86
2022/01/31 04:05:36;;;;;;;3.30;1.80;;;;;;;20.65;29.43;100247.90;100221;1363;61246;-86
2022/01/31 04:08:22;;;;;;;4.50;1.50;;;;;;;20.65;29.48;100243.99;99838;1364;61505;-82
2022/01/31 04:11:10;;;;;;;4.80;1.60;;;;;;;20.65;29.65;100245.77;100228;1363;73054;-84
2022/01/31 04:14:27;;;;;;;3.30;1.50;;;;;;;20.65;29.60;100246.48;99858;1364;75103;-84
2022/01/31 04:17:24;;;;;;;3.40;1.60;;;;;;;20.65;29.38;100250.09;100232;1361;61325;-83
2022/01/31 04:20:30;;;;;;;6.70;2.00;;;;;;;20.64;29.51;100256.02;100232;1363;61280;-82
2022/01/31 04:23:18;;;;;;;4.30;1.60;;;;;;;20.63;29.58;100255.17;99736;1367;71939;-84
2022/01/31 04:26:16;;;;;;;3.30;1.50;;;;;;;20.63;29.55;100260.35;99759;1366;73835;-82
2022/01/31 04:29:23;;;;;;;2.00;1.30;;;;;;;20.64;29.55;100261.59;100381;1361;61637;-85
2022/01/31 04:32:30;;;;;;;4.60;1.80;;;;;;;20.63;29.40;100261.30;100243;1360;61343;-84
2022/01/31 04:35:30;;;;;;;;;;;;;;;;;;;;;
2022/01/31 04:38:21;;;;;;;;;;;;;;;;;;;;;
2022/01/31 04:41:10;;;;;;;4.30;1.90;;;;;;;20.64;29.24;100260.98;100488;1358;61464;-81
2022/01/31 04:44:01;;;;;;;28.60;2.30;;;;;;;20.65;29.14;100263.06;100899;1354;61430;-83
2022/01/31 04:46:56;;;;;;;;;;;;;;;;;;;;;
2022/01/31 04:50:09;;;;;;;17.50;2.10;;;;;;;20.66;29.10;100266.20;101450;1349;74793;-83
2022/01/31 04:52:42;;;;;;;17.40;2.00;;;;;;;20.67;28.99;100269.55;101399;1352;61518;-81
2022/01/31 04:55:39;;;;;;;12.70;2.20;;;;;;;20.68;28.90;100270.03;101565;1346;61174;-83
2022/01/31 04:59:06;;;;;;;12.70;2.10;;;;;;;20.67;28.83;100265.77;101754;1343;73894;-83
2022/01/31 05:02:03;;;;;;;17.00;1.90;;;;;;;20.68;28.73;100265.52;101544;1348;76275;-86
2022/01/31 05:04:54;;;;;;;7.00;1.80;;;;;;;20.69;28.59;100270.52;101158;1354;61252;-81
2022/01/31 05:07:53;;;;;;;10.70;2.20;;;;;;;20.69;28.53;100278.19;100835;1354;61951;-78
2022/01/31 05:11:10;;;;;;;5.80;2.00;;;;;;;20.69;28.44;100280.14;101371;1351;71804;-83
2022/01/31 05:14:06;;;;;;;9.90;2.00;;;;;;;20.69;28.35;100290.33;101685;1343;74630;-81
2022/01/31 05:16:53;;;;;;;7.10;2.40;;;;;;;20.70;28.30;100292.95;101727;1343;61966;-84
2022/01/31 05:19:55;;;;;;;15.80;1.90;;;;;;;20.70;28.26;100303.28;101747;1343;61638;-83
2022/01/31 05:23:00;;;;;;;10.20;1.90;;;;;;;20.70;28.17;100300.48;101671;1343;73029;-90
2022/01/31 05:25:33;;;;;;;6.80;1.80;;;;;;;20.70;28.05;100299.71;101654;1343;74916;-87
2022/01/31 05:28:29;;;;;;;9.60;1.90;;;;;;;20.70;27.97;100301.52;101714;1343;61712;-82
2022/01/31 05:31:18;;;;;;;10.90;2.00;;;;;;;20.68;27.80;100304.37;101790;1341;61249;-78
2022/01/31 05:34:19;;;;;;;;;;;;;;;20.62;27.70;100315.89;101699;1340;71581;-81
2022/01/31 05:37:27;;;;;;;;;;;;;;;;;;;;;
2022/01/31 05:39:58;;;;;;;7.40;2.50;;;;;;;20.50;27.53;100322.34;102183;1333;61315;-82
2022/01/31 05:42:47;;;;;;;5.60;2.80;;;;;;;20.46;27.12;100319.81;102530;1325;60926;-80
2022/01/31 05:45:24;;;;;;;6.40;3.10;;;;;;;20.43;26.99;100315.20;102452;1324;72875;-81
2022/01/31 05:47:52;;;;;;;7.40;3.30;;;;;;;20.39;26.70;100316.92;102824;1322;74892;-79
2022/01/31 05:50:21;;;;;;;8.00;3.20;;;;;;;20.35;26.49;100316.34;102608;1325;61822;-82
2022/01/31 05:52:58;;;;;;;9.30;3.50;;;;;;;20.29;26.15;100321.04;102462;1325;61300;-80
2022/01/31 05:55:44;;;;;;;7.50;3.10;;;;;;;20.22;26.07;100323.71;102419;1325;71571;-80
2022/01/31 05:58:13;;;;;;;10.80;3.20;;;;;;;20.18;26.00;100324.91;103569;1322;75065;-79
2022/01/31 06:00:39;;;;;;;13.90;3.30;;;;;;;20.15;25.86;100330.91;102883;1317;61348;-80
2022/01/31 06:03:05;;;;;;;12.90;3.60;;;;;;;20.10;25.58;100331.06;102994;1317;61449;-83
2022/01/31 06:05:31;;;;;;;13.40;3.60;;;;;;;20.03;25.40;100331.55;102811;1319;61404;-80
2022/01/31 06:08:00;;;;;;;8.90;3.30;;;;;;;19.94;25.27;100336.48;102998;1316;74954;-79
2022/01/31 06:10:42;;;;;;;10.10;3.20;;;;;;;19.91;25.28;100330.45;103120;1319;61505;-78
2022/01/31 06:13:08;;;;;;;8.50;3.40;;;;;;;19.91;25.29;100328.13;103231;1316;61246;-79
2022/01/31 06:15:33;;;;;;;12.50;3.30;;;;;;;19.92;25.22;100324.66;104065;1317;59661;-78
2022/01/31 06:17:59;;;;;;;10.30;3.40;;;;;;;19.96;25.26;100318.34;103080;1317;61753;-79
2022/01/31 06:20:28;;;;;;;8.20;2.90;;;;;;;20.00;25.21;100314.15;103038;1316;61345;-80
2022/01/31 06:23:03;;;;;;;8.80;3.20;;;;;;;20.03;25.16;100315.83;103305;1316;61313;-80
2022/01/31 06:25:29;;;;;;;8.40;3.10;;;;;;;20.07;25.18;100314.63;103094;1317;72699;-79
2022/01/31 06:28:16;;;;;;;9.50;2.70;;;;;;;20.10;25.22;100316.76;103139;1316;74683;-79
2022/01/31 06:30:43;;;;;;;7.00;2.80;;;;;;;20.14;25.36;100329.52;103021;1316;61367;-79
2022/01/31 06:33:16;;;;;;;8.40;2.90;;;;;;;20.16;25.40;100335.05;103332;1316;61208;-79
2022/01/31 06:35:50;;;;;;;7.10;2.60;;;;;;;20.19;25.47;100345.89;103400;1319;74287;-79
2022/01/31 06:38:28;;;;;;;8.00;2.60;;;;;;;20.24;25.57;100357.90;103076;1316;75107;-80
2022/01/31 06:41:04;;;;;;;5.60;2.50;;;;;;;20.27;25.70;100359.27;103261;1316;61220;-79
2022/01/31 06:43:30;;;;;;;7.00;2.80;;;;;;;20.30;25.76;100357.80;103254;1316;61706;-79
2022/01/31 06:45:58;;;;;;;7.80;2.50;;;;;;;20.33;25.83;100358.98;103246;1316;62442;-79
2022/01/31 06:48:35;;;;;;;6.30;2.60;;;;;;;20.36;25.82;100358.63;103917;1307;73850;-83
2022/01/31 06:51:04;;;;;;;6.10;2.60;;;;;;;20.39;25.72;100358.52;104057;1305;61288;-82
2022/01/31 06:53:30;;;;;;;9.30;3.10;;;;;;;20.42;25.90;100357.10;104236;1306;61320;-79
2022/01/31 06:55:57;;;;;;;10.80;3.10;;;;;;;20.42;25.85;100363.34;103946;1308;72154;-80
2022/01/31 06:58:31;;;;;;;15.50;3.30;;;;;;;20.40;26.03;100367.23;104321;1308;74824;-79
2022/01/31 07:00:58;;;;;;;14.60;3.90;;;;;;;20.40;26.26;100363.64;103909;1308;61353;-81
2022/01/31 07:03:29;;;;;;;24.80;3.80;;;;;;;20.41;26.53;100353.20;103944;1308;61379;-79
2022/01/31 07:05:54;;;;;;;14.50;4.20;;;;;;;20.38;26.73;100347.89;104815;1308;74480;-79
2022/01/31 07:08:20;;;;;;;10.60;4.00;;;;;;;20.36;26.67;100352.20;105067;1306;61343;-79
2022/01/31 07:10:52;;;;;;;15.30;4.30;;;;;;;20.35;26.52;100343.86;103975;1308;61151;-79
2022/01/31 07:15:56;;;;;;;14.50;4.30;;;;;;;20.34;26.22;100331.08;105172;1305;72472;-79
2022/01/31 07:18:21;;;;;;;17.00;4.30;;;;;;;20.35;26.32;100334.91;105224;1306;59862;-79
2022/01/31 07:20:51;;;;;;;13.10;3.90;;;;;;;20.36;26.12;100337.91;105250;1306;59271;-79
2022/01/31 07:23:23;;;;;;;9.10;3.60;;;;;;;20.35;26.15;100344.38;105220;1305;61802;-78
2022/01/31 07:25:49;;;;;;;8.60;3.50;;;;;;;20.33;26.02;100338.12;104471;1305;72894;-78
2022/01/31 07:28:19;;;;;;;8.70;3.80;;;;;;;20.32;25.86;100334.58;104015;1308;61314;-80
2022/01/31 07:31:08;;;;;;;11.00;3.70;;;;;;;20.34;25.83;100331.95;103657;1313;59752;-79
2022/01/31 07:33:34;;;;;;;12.50;3.60;;;;;;;20.37;25.88;100331.36;103921;1313;61590;-79
2022/01/31 07:36:00;;;;;;;11.10;3.60;;;;;;;20.40;25.79;100328.23;103705;1313;61345;-79
2022/01/31 07:38:26;;;;;;;7.70;3.50;;;;;;;20.45;25.93;100330.98;103543;1313;61606;-78
2022/01/31 07:40:55;;;;;;;10.80;3.60;;;;;;;20.49;25.96;100335.64;103650;1313;61494;-79
2022/01/31 07:43:21;;;;;;;11.20;3.70;;;;;;;20.53;26.17;100333.92;103726;1313;62037;-78
2022/01/31 07:45:47;;;;;;;12.70;3.30;;;;;;;20.56;26.31;100335.25;103750;1314;61457;-79
2022/01/31 07:48:13;;;;;;;10.00;3.50;;;;;;;20.59;26.64;100340.89;103744;1313;63090;-78
2022/01/31 07:50:41;;;;;;;17.40;3.30;;;;;;;20.63;26.74;100339.41;103753;1313;61332;-78
2022/01/31 07:53:09;;;;;;;17.70;3.50;;;;;;;20.66;26.86;100337.36;103654;1312;61100;-78
2022/01/31 07:55:37;;;;;;;16.80;3.90;;;;;;;20.67;27.17;100339.45;103537;1313;74306;-79
2022/01/31 07:58:03;;;;;;;15.20;3.50;;;;;;;20.65;27.43;100345.01;103859;1313;75760;-78
2022/01/31 08:00:29;;;;;;;19.40;3.60;;;;;;;20.61;27.70;100345.48;103687;1313;60185;-79
2022/01/31 08:02:56;;;;;;;13.30;3.30;;;;;;;20.57;27.84;100349.55;104319;1313;59562;-79
2022/01/31 08:05:21;;;;;;;12.80;3.30;;;;;;;20.53;27.72;100346.95;104757;1313;59285;-79
2022/01/31 08:07:48;;;;;;;11.70;3.70;;;;;;;20.50;27.67;100344.17;104592;1305;59364;-80
2022/01/31 08:10:13;;;;;;;15.20;3.20;;;;;;;20.46;27.68;100341.95;105095;1305;59663;-79
2022/01/31 08:12:41;;;;;;;11.60;3.00;;;;;;;20.43;27.56;100334.45;105180;1306;59299;-79
2022/01/31 08:15:08;;;;;;;10.80;3.40;;;;;;;20.41;27.22;100332.10;105269;1306;59237;-80
2022/01/31 08:17:34;;;;;;;11.70;3.20;;;;;;;20.40;27.04;100331.13;105161;1306;59227;-80
2022/01/31 08:19:59;;;;;;;7.30;3.10;;;;;;;20.39;26.91;100333.91;104720;1306;61440;-80
2022/01/31 08:22:25;;;;;;;7.60;3.00;;;;;;;20.37;26.82;100334.58;104237;1306;61375;-79
2022/01/31 08:24:54;;;;;;;9.20;3.10;;;;;;;20.34;26.55;100334.60;103969;1306;61279;-81
2022/01/31 08:27:21;;;;;;;12.80;3.20;;;;;;;20.32;26.41;100337.44;104221;1306;63256;-80
2022/01/31 08:29:47;;;;;;;9.30;3.30;;;;;;;20.29;26.32;100333.38;104884;1306;60162;-81
2022/01/31 08:32:33;;;;;;;6.80;3.10;;;;;;;20.27;26.11;100335.13;104057;1308;61299;-80
2022/01/31 08:37:59;;;;;;;10.10;3.20;;;;;;;20.22;25.89;100327.11;104321;1305;74778;-80
2022/01/31 08:40:28;;;;;;;8.40;3.20;;;;;;;20.21;25.76;100330.08;104276;1305;61826;-81
2022/01/31 08:43:01;;;;;;;6.80;3.00;;;;;;;20.18;25.57;100332.58;104183;1305;59342;-84
2022/01/31 08:45:38;;;;;;;8.30;3.50;;;;;;;20.18;25.39;100326.87;104268;1306;73843;-81
2022/01/31 08:48:04;;;;;;;11.40;3.50;;;;;;;20.17;25.33;100322.50;104690;1305;75849;-80
2022/01/31 08:50:30;;;;;;;7.90;3.50;;;;;;;20.16;25.39;100320.25;104316;1305;60044;-79
2022/01/31 08:52:56;;;;;;;9.90;3.20;;;;;;;20.17;25.17;100318.58;104212;1305;61285;-80
2022/01/31 08:55:22;;;;;;;6.50;2.90;;;;;;;20.16;25.04;100315.30;104027;1308;61425;-79
2022/01/31 08:57:53;;;;;;;12.30;3.50;;;;;;;20.13;25.11;100316.74;103914;1306;61288;-80
2022/01/31 09:00:21;;;;;;;18.30;3.50;;;;;;;20.12;25.42;100316.80;104427;1306;61391;-81
2022/01/31 09:03:17;;;;;;;17.00;3.80;;;;;;;20.13;25.77;100320.31;104056;1307;60626;-80
2022/01/31 09:05:39;;;;;;;18.90;3.40;;;;;;;20.12;25.86;100320.40;104468;1305;74261;-81
2022/01/31 09:08:05;;;;;;;12.50;3.00;;;;;;;20.12;26.00;100319.88;104319;1307;59848;-80
2022/01/31 09:10:30;;;;;;;15.70;3.30;;;;;;;20.13;26.01;100318.51;104356;1308;61271;-80
2022/01/31 09:12:56;;;;;;;20.10;3.90;;;;;;;20.16;26.02;100324.16;104433;1307;59452;-78
2022/01/31 09:15:22;;;;;;;20.50;4.30;;;;;;;20.19;26.08;100327.34;104057;1305;61313;-78
2022/01/31 09:17:48;;;;;;;14.30;4.20;;;;;;;20.22;25.94;100327.82;104186;1307;59454;-80
2022/01/31 09:20:22;;;;;;;12.90;3.00;;;;;;;20.25;26.13;100321.38;104099;1305;76016;-79
2022/01/31 09:22:48;;;;;;;12.90;3.10;;;;;;;20.28;25.97;100321.70;104102;1305;61452;-80
2022/01/31 09:25:24;;;;;;;10.80;2.90;;;;;;;20.31;26.25;100324.48;104070;1306;61419;-80
2022/01/31 09:27:50;;;;;;;11.30;3.10;;;;;;;20.35;26.30;100320.41;104162;1307;72903;-80
2022/01/31 09:30:21;;;;;;;9.70;3.00;;;;;;;20.38;26.25;100313.56;104055;1308;61866;-80
2022/01/31 09:32:56;;;;;;;10.10;2.70;;;;;;;20.41;26.49;100313.17;104169;1307;61451;-79
2022/01/31 09:35:25;;;;;;;7.70;3.10;;;;;;;20.44;26.65;100310.80;104145;1306;60571;-82
2022/01/31 09:37:51;;;;;;;11.70;2.90;;;;;;;20.48;26.58;100303.77;103882;1306;72917;-79
2022/01/31 09:40:24;;;;;;;10.50;2.80;;;;;;;20.51;26.71;100298.52;104083;1308;75461;-80
2022/01/31 09:43:08;;;;;;;15.20;3.00;;;;;;;20.54;26.84;100295.08;104260;1305;61335;-79
2022/01/31 09:48:40;;;;;;;11.30;3.00;;;;;;;20.58;27.20;100277.90;104219;1305;74486;-79
2022/01/31 09:51:18;;;;;;;10.10;3.00;;;;;;;20.58;27.38;100269.65;104760;1307;74771;-80
2022/01/31 09:53:52;;;;;;;11.80;3.50;;;;;;;20.58;27.08;100264.34;104330;1307;61612;-80
2022/01/31 09:56:24;;;;;;;10.40;3.60;;;;;;;20.53;26.83;100255.97;104149;1305;61538;-79
2022/01/31 09:58:55;;;;;;;10.30;3.60;;;;;;;20.47;26.85;100249.27;105005;1307;74349;-79
2022/01/31 10:01:26;;;;;;;9.90;3.10;;;;;;;20.45;26.85;100244.60;104989;1305;59504;-80
2022/01/31 10:04:01;;;;;;;11.80;4.00;;;;;;;20.41;26.79;100234.91;104129;1306;61224;-78
2022/01/31 10:06:30;;;;;;;16.10;3.50;;;;;;;20.38;26.58;100231.02;104118;1306;61309;-80
2022/01/31 10:09:07;;;;;;;14.70;3.40;;;;;;;20.39;26.67;100225.77;104324;1307;73952;-79
2022/01/31 10:17:33;;;;;;;10.60;3.30;;;;;;;20.52;27.10;100218.70;105036;1304;59898;-78
2022/01/31 10:20:18;;;;;;;21.70;3.20;;;;;;;20.57;27.46;100219.14;104798;1307;74021;-80
2022/01/31 10:22:44;;;;;;;10.00;3.10;;;;;;;20.63;27.60;100213.04;104198;1307;74740;-79
2022/01/31 10:25:15;;;;;;;14.60;3.40;;;;;;;20.63;27.48;100209.79;104132;1305;61260;-80
2022/01/31 10:27:52;;;;;;;13.70;3.10;;;;;;;20.63;27.33;100209.46;104135;1307;61267;-80
2022/01/31 10:30:24;;;;;;;10.40;3.20;;;;;;;20.61;27.00;100207.11;104772;1306;74351;-82
2022/01/31 10:32:50;;;;;;;14.70;3.60;;;;;;;20.59;26.81;100209.36;104073;1305;75093;-80
2022/01/31 10:35:29;;;;;;;10.80;3.10;;;;;;;20.56;26.68;100211.19;104129;1308;63623;-79
2022/01/31 10:38:09;;;;;;;7.30;2.90;;;;;;;20.52;26.51;100207.95;104298;1307;61193;-81
2022/01/31 10:46:09;;;;;;;12.10;3.00;;;;;;;20.44;26.25;100198.42;104125;1305;61308;-80
2022/01/31 10:56:55;;;;;;;10.10;3.00;;;;;;;20.31;26.09;100179.75;103500;1313;61345;-79
2022/01/31 10:59:30;;;;;;;14.60;3.60;;;;;;;20.30;26.21;100176.77;104615;1311;60598;-79
2022/01/31 11:01:57;;;;;;;12.10;3.10;;;;;;;20.28;26.04;100172.87;104621;1311;72880;-79
2022/01/31 11:04:23;;;;;;;16.50;3.50;;;;;;;20.22;25.93;100167.60;104394;1311;75683;-79
2022/01/31 11:06:56;;;;;;;15.70;3.60;;;;;;;20.20;25.89;100165.75;104508;1311;61287;-80
2022/01/31 11:09:21;;;;;;;8.80;3.40;;;;;;;20.20;25.95;100165.19;103826;1311;61342;-77
2022/01/31 11:11:48;;;;;;;10.40;3.20;;;;;;;20.22;25.99;100165.41;103778;1311;61530;-79
2022/01/31 11:14:14;;;;;;;11.60;3.00;;;;;;;20.25;25.87;100164.65;104686;1311;59934;-80
2022/01/31 11:16:43;;;;;;;8.60;2.80;;;;;;;20.28;25.91;100169.09;104603;1311;61346;-79
2022/01/31 11:19:10;;;;;;;11.80;3.30;;;;;;;20.31;25.78;100164.38;104884;1311;60589;-79
2022/01/31 11:21:37;;;;;;;16.90;3.00;;;;;;;20.32;25.78;100151.75;104840;1311;73777;-79
2022/01/31 11:24:05;;;;;;;12.40;3.30;;;;;;;20.33;25.78;100160.45;104558;1311;74083;-80
2022/01/31 11:26:40;;;;;;;10.90;2.80;;;;;;;20.34;25.64;100156.63;104611;1311;60574;-84
2022/01/31 11:29:06;;;;;;;12.10;3.40;;;;;;;20.35;25.60;100148.17;104064;1306;61790;-80
2022/01/31 11:31:36;;;;;;;10.10;3.00;;;;;;;20.34;25.49;100137.15;105219;1305;73843;-78
2022/01/31 11:34:02;;;;;;;10.80;3.40;;;;;;;20.36;25.65;100133.30;104728;1308;74686;-79
2022/01/31 11:36:29;;;;;;;10.70;2.90;;;;;;;20.40;25.59;100132.06;104137;1305;61403;-79
2022/01/31 11:39:16;;;;;;;9.20;3.40;;;;;;;20.42;25.58;100132.04;104098;1305;61297;-79
2022/01/31 11:41:52;;;;;;;10.90;3.00;;;;;;;20.46;25.66;100132.83;104127;1307;73947;-82
2022/01/31 11:44:37;;;;;;;12.70;3.10;;;;;;;20.50;25.93;100133.41;104333;1305;74026;-81
2022/01/31 11:47:05;;;;;;;15.10;2.80;;;;;;;20.52;26.02;100134.70;104673;1305;61387;-82
2022/01/31 11:49:56;;;;;;;12.30;2.90;;;;;;;20.54;26.16;100136.34;104256;1305;60368;-79
2022/01/31 11:52:22;;;;;;;14.20;2.90;;;;;;;20.53;25.88;100138.56;104147;1306;72788;-80
2022/01/31 11:55:08;;;;;;;14.80;2.90;;;;;;;20.44;26.00;100134.94;104398;1307;59828;-78
2022/01/31 11:57:34;;;;;;;13.90;3.10;;;;;;;20.36;26.15;100133.97;104868;1310;62923;-79
2022/01/31 12:00:03;;;;;;;10.60;2.90;;;;;;;20.32;26.10;100134.11;104959;1311;59662;-79
2022/01/31 12:02:31;;;;;;;17.30;3.50;;;;;;;20.29;26.19;100130.40;104652;1311;75266;-79
2022/01/31 12:05:06;;;;;;;14.10;3.40;;;;;;;20.20;26.06;100124.83;104712;1311;75946;-79
2022/01/31 12:07:42;;;;;;;12.70;3.20;;;;;;;20.06;26.12;100122.50;104724;1311;60856;-79
2022/01/31 12:10:31;;;;;;;10.70;3.30;;;;;;;20.06;26.17;100125.20;104890;1311;60357;-79
2022/01/31 12:13:02;;;;;;;11.70;2.90;;;;;;;20.07;26.20;100114.61;104805;1311;73825;-79
2022/01/31 12:15:49;;;;;;;14.10;3.40;;;;;;;20.07;26.41;100111.04;104719;1311;72477;-79
2022/01/31 12:24:10;;;;;;;14.70;3.20;;;;;;;20.10;26.40;100126.70;103856;1311;73695;-81
2022/01/31 12:27:21;;;;;;;;;;;;;;;;;;;;;
2022/01/31 12:29:59;;;;;;;13.10;3.60;;;;;;;20.09;26.26;100116.77;103942;1311;61310;-80
2022/01/31 12:32:49;;;;;;;21.40;3.30;;;;;;;20.05;26.28;100104.04;104024;1311;61207;-80
2022/01/31 12:35:17;;;;;;;9.00;2.80;;;;;;;20.01;26.20;100092.90;103902;1307;72633;-80
2022/01/31 12:37:53;;;;;;;16.50;3.20;;;;;;;19.98;26.13;100088.29;104408;1306;74806;-79
2022/01/31 12:40:40;;;;;;;15.80;3.10;;;;;;;19.96;26.22;100083.64;104349;1305;61158;-79
2022/01/31 12:43:51;;;;;;;12.30;2.90;;;;;;;19.95;26.11;100085.85;104216;1307;61573;-80
2022/01/31 12:46:16;;;;;;;9.40;3.10;;;;;;;19.84;26.05;100079.02;104118;1305;72921;-79
2022/01/31 12:49:05;;;;;;;19.60;3.50;;;;;;;19.82;26.02;100075.48;105163;1306;74836;-79
2022/01/31 12:51:31;;;;;;;12.40;3.60;;;;;;;19.82;26.03;100073.65;105376;1305;61341;-80
2022/01/31 12:53:58;;;;;;;14.00;3.60;;;;;;;19.85;26.49;100070.00;105281;1307;59224;-79
2022/01/31 12:56:26;;;;;;;13.90;3.70;;;;;;;19.88;26.54;100068.02;105115;1306;59153;-80
2022/01/31 12:58:58;;;;;;;12.30;3.20;;;;;;;19.85;26.40;100066.45;105468;1305;74917;-80
2022/01/31 13:01:27;;;;;;;9.00;2.90;;;;;;;19.80;26.17;100067.71;105165;1308;60927;-80
2022/01/31 13:04:19;;;;;;;10.20;3.10;;;;;;;19.80;26.13;100058.48;104129;1305;62518;-79
2022/01/31 13:06:52;;;;;;;10.00;3.70;;;;;;;19.80;26.01;100057.91;105388;1305;73782;-79
2022/01/31 13:09:21;;;;;;;12.30;3.40;;;;;;;19.80;25.89;100060.24;104300;1307;76224;-79
2022/01/31 13:11:49;;;;;;;13.00;3.00;;;;;;;19.79;25.82;100056.74;104869;1306;60381;-79
2022/01/31 13:14:38;;;;;;;11.90;3.50;;;;;;;19.79;25.66;100052.27;104339;1305;61301;-79
2022/01/31 13:17:16;;;;;;;14.50;3.30;;;;;;;19.83;26.22;100056.95;104857;1308;72825;-79
2022/01/31 13:19:47;;;;;;;14.70;3.30;;;;;;;19.88;26.20;100055.73;104336;1305;74846;-79
2022/01/31 13:22:40;;;;;;;14.80;3.50;;;;;;;19.93;26.27;100061.18;104410;1305;61574;-79
2022/01/31 13:25:18;;;;;;;7.90;2.90;;;;;;;19.97;26.08;100063.73;104316;1307;61383;-79
2022/01/31 13:27:48;;;;;;;13.80;3.20;;;;;;;20.02;26.01;100069.24;104381;1305;72825;-82
2022/01/31 13:30:51;;;;;;;16.30;3.50;;;;;;;20.06;25.89;100059.69;104104;1306;73835;-80
2022/01/31 13:33:22;;;;;;;13.90;2.70;;;;;;;20.09;25.97;100055.98;104273;1307;61309;-80
2022/01/31 13:36:11;;;;;;;9.80;3.00;;;;;;;20.14;25.94;100058.01;103842;1313;61195;-79
2022/01/31 13:38:49;;;;;;;10.80;2.80;;;;;;;20.17;26.37;100053.64;103995;1313;74302;-81